FW5264 Chilmark MA US current weather conditions

sailwx.info

Wind from 358 at 0 knots gusting 1

Air temperature 2.2° C
Dewpoint 0.9° C

Last reported at 2020-Oct-31 12:01 UTC.
Time now 2020-Oct-31 12:55 UTC

Location: N 41°23' W 070°41'.
View on Google Maps.

See reports from other nearby stations

  
Tides and Currents Weather Stations Pressure Air Temp Water Temp Dewpoint Dewpoint Depression Visibility Wind Speed Wind Dir Waves Ship Positions
date/time (UTC)wind fromknots sea level pressurealtimeterstation pressurevisibilityair tempwater tempwave heightnotes
2020-Oct-31 12:01 358 0 gusting 1 2.2
2020-Oct-31 11:50 038 1.1
2020-Oct-31 11:40 332 1.1
2020-Oct-31 11:30 360 0.6
2020-Oct-31 11:21 351 0.6
2020-Oct-31 11:10 350 0.6
2020-Oct-31 11:00 045 0.6
2020-Oct-31 10:51 317 0.6
2020-Oct-31 10:40 045 0.6
2020-Oct-31 10:30 352 0.6
2020-Oct-31 10:21 340 0.6
2020-Oct-31 10:12 024 0.6
2020-Oct-31 10:02 355 1 gusting 4 1.1
2020-Oct-31 09:52 001 1.1
2020-Oct-31 09:43 023 0 gusting 1 1.1
2020-Oct-31 09:33 022 0 gusting 2 0.6
2020-Oct-31 09:23 031 0 gusting 2 1.1
2020-Oct-31 09:14 031 0 gusting 3 1.1
2020-Oct-31 09:04 354 1.1
2020-Oct-31 08:54 022 1.1
2020-Oct-31 08:44 352 0 gusting 4 1.1
2020-Oct-31 08:35 323 0 gusting 2 1.1
2020-Oct-31 08:25 336 1.1
2020-Oct-31 08:15 006 1 gusting 4 1.1
2020-Oct-31 08:06 002 1.1
2020-Oct-31 07:56 326 0 gusting 2 1.1
2020-Oct-31 07:46 353 1.1
2020-Oct-31 07:37 229 1.1
2020-Oct-31 07:27 341 1 gusting 4 1.1
2020-Oct-31 07:17 336 1.7
2020-Oct-31 07:07 266 1.7
2020-Oct-31 06:56 358 1.7
2020-Oct-31 06:47 321 1 gusting 6 1.7
2020-Oct-31 06:37 325 2 gusting 5 1.7
2020-Oct-31 06:27 353 1 gusting 6 1.7
2020-Oct-31 06:17 336 0 gusting 1 1.7
2020-Oct-31 06:08 336 1.7
2020-Oct-31 05:58 332 0 gusting 2 1.7
2020-Oct-31 05:48 327 1.7
2020-Oct-31 05:38 327 0 gusting 2 1.7
2020-Oct-31 05:28 354 1 gusting 5 1.7
2020-Oct-31 05:19 357 0 gusting 2 1.7
2020-Oct-31 05:09 330 0 gusting 4 1.7
2020-Oct-31 04:59 353 1 gusting 5 1.7
2020-Oct-31 04:49 351 1 gusting 3 1.7
2020-Oct-31 04:39 010 1.7
2020-Oct-31 04:29 002 1 gusting 6 1.7
2020-Oct-31 04:19 318 1.7
2020-Oct-31 04:10 348 1 gusting 5 1.7
2020-Oct-31 04:00 309 1 gusting 6 1.7
2020-Oct-30 23:50 316 0 gusting 4 3.3
2020-Oct-30 23:40 360 0 gusting 4 3.3
2020-Oct-30 23:31 327 2 gusting 7 3.3
2020-Oct-30 23:20 340 6 gusting 12 3.3
2020-Oct-30 23:10 349 4 gusting 10 3.3
2020-Oct-30 23:00 360 1 gusting 6 3.3
2020-Oct-30 22:52 011 4 gusting 9 3.3
2020-Oct-30 22:42 359 1 gusting 6 2.8
2020-Oct-30 22:32 024 3 gusting 6 2.8
2020-Oct-30 22:22 360 2 gusting 6 2.8
2020-Oct-30 22:12 021 2 gusting 7 2.8
2020-Oct-30 22:03 358 2 gusting 5 2.8
2020-Oct-30 21:53 321 2 gusting 9 3.3
2020-Oct-30 21:45 347 2 gusting 6 3.3
2020-Oct-30 21:35 004 3 gusting 7 3.3
2020-Oct-30 21:25 345 3 gusting 6 3.3
2020-Oct-30 21:15 339 4 gusting 8 3.3
2020-Oct-30 21:14 314 1 gusting 4 3.3
2020-Oct-30 21:04 345 2 gusting 5 3.3
2020-Oct-30 20:54 348 3 gusting 9 3.3
2020-Oct-30 20:44 006 1 gusting 5 3.3
2020-Oct-30 20:34 002 6 gusting 13 3.3
2020-Oct-30 20:24 354 5 gusting 7 3.3
2020-Oct-30 20:14 017 1 gusting 6 3.3
2020-Oct-30 20:05 011 3 gusting 12 3.3
2020-Oct-30 19:55 033 2 gusting 12 3.3
2020-Oct-30 19:46 009 4 gusting 7 3.3
2020-Oct-30 19:36 345 6 gusting 11 3.3
2020-Oct-30 19:26 349 3 gusting 7 3.9
2020-Oct-30 19:16 001 4 gusting 12 3.9
2020-Oct-30 19:07 343 4 gusting 8 3.9
2020-Oct-30 18:57 007 4 gusting 12 3.9
2020-Oct-30 18:47 342 2 gusting 3 3.9
2020-Oct-30 18:38 350 4 gusting 9 3.9
2020-Oct-30 18:28 008 6 gusting 11 3.9
2020-Oct-30 18:18 338 3 gusting 9 4.4
2020-Oct-30 18:09 032 4 gusting 8 5.6
2020-Oct-30 17:59 347 4 gusting 9 5.6
2020-Oct-30 17:50 346 5 gusting 13 5.6
2020-Oct-30 17:40 355 5 gusting 19 5.6
2020-Oct-30 17:30 355 5 gusting 8 5.6
2020-Oct-30 17:21 020 6 gusting 11 5.6
2020-Oct-30 17:12 009 5 gusting 13 5.6
2020-Oct-30 17:02 005 6 gusting 13 6.1
2020-Oct-30 16:52 009 3 gusting 8 5.6
2020-Oct-30 16:49 009 4 gusting 12 5.6
2020-Oct-30 16:45 013 4 gusting 8 5.6
2020-Oct-30 16:39 004 3 5.6
2020-Oct-30 16:34 007 3 5.6
2020-Oct-30 16:25 016 6.1
2020-Oct-30 16:16 003 6.1
2020-Oct-30 16:06 020 6.1
2020-Oct-30 15:56 002 5.6
2020-Oct-30 15:47 016 5.6
2020-Oct-30 15:37 359 5.6
2020-Oct-30 15:27 025 5.6
2020-Oct-30 15:19 025 5.6
2020-Oct-30 15:09 019 5.6
2020-Oct-30 14:58 009 5.6
2020-Oct-30 14:48 014 5.6
2020-Oct-30 14:38 001 6.1
2020-Oct-30 14:28 005 6.1
2020-Oct-30 14:20 014 6.1
2020-Oct-30 14:18 021 6.1
2020-Oct-30 14:08 359 6.1
2020-Oct-30 13:58 032 6.1
2020-Oct-30 13:48 025 6.1
2020-Oct-30 13:38 018 0 6.7
2020-Oct-30 13:29 012 6.7
2020-Oct-30 13:19 034 6.7
2020-Oct-30 13:09 023 6.7
2020-Oct-30 12:59 008 6.7
2020-Oct-30 12:49 358 6.7
2020-Oct-30 12:39 024 7.2
2020-Oct-30 12:29 043 7.2
2020-Oct-30 12:20 010 7.2
2020-Oct-30 12:10 023 7.2
2020-Oct-30 12:00 029 7.2
2020-Oct-30 11:50 022 7.2
2020-Oct-30 11:40 023 7.2
2020-Oct-30 11:31 022 7.2
2020-Oct-30 11:20 013 7.2
2020-Oct-30 11:11 032 7.2
2020-Oct-30 11:02 041 7.2
2020-Oct-30 10:52 048 7.2
2020-Oct-30 10:42 033 7.8
2020-Oct-30 10:33 039 7.8
2020-Oct-30 10:23 029 7.8
2020-Oct-30 10:14 032 7.8
2020-Oct-30 10:04 001 7.8
2020-Oct-30 09:55 005 7.8
2020-Oct-30 09:45 358 8.3
2020-Oct-30 09:35 050 8.3
2020-Oct-30 09:25 360 8.3
2020-Oct-30 09:15 049 8.3
2020-Oct-30 09:14 039 8.3
2020-Oct-30 09:05 039 8.3
2020-Oct-30 08:55 009 8.3
2020-Oct-30 08:45 040 8.9
2020-Oct-30 08:36 049 8.9
2020-Oct-30 08:26 058 8.9
2020-Oct-30 08:17 042 8.9
2020-Oct-30 08:07 045 8.9
2020-Oct-30 07:58 037 8.9
2020-Oct-30 07:48 044 8.9
2020-Oct-30 07:38 032 8.9
2020-Oct-30 07:29 042 8.9
2020-Oct-30 07:19 025 9.4
2020-Oct-30 07:09 035 9.4
2020-Oct-30 06:59 021 9.4
2020-Oct-30 06:49 016 9.4
2020-Oct-30 06:38 024 9.4
2020-Oct-30 06:29 052 9.4
2020-Oct-30 06:18 030 9.4
2020-Oct-30 06:09 039 9.4
2020-Oct-30 05:59 053 9.4
2020-Oct-30 05:50 035 9.4
2020-Oct-30 05:40 026 9.4
2020-Oct-30 05:31 030 9.4
2020-Oct-30 05:20 046 9.4
2020-Oct-30 05:10 006 9.4
2020-Oct-30 05:00 036 9.4
2020-Oct-30 04:50 033 9.4
2020-Oct-30 04:40 007 9.4
2020-Oct-30 04:39 011 9.4
2020-Oct-30 04:28 024 10.0
2020-Oct-30 04:18 042 10.0
2020-Oct-30 04:08 032 10.0
2020-Oct-30 03:59 038 10.0
2020-Oct-30 03:49 042 10.0
2020-Oct-30 03:39 062 10.6
2020-Oct-30 03:30 042 10.6
2020-Oct-30 03:20 026 10.6
2020-Oct-30 03:10 030 10.6
2020-Oct-30 03:01 070 10.6
2020-Oct-30 02:50 040 10.6
2020-Oct-30 02:40 024 10.6
2020-Oct-30 02:30 055 11.1
2020-Oct-30 02:21 031 11.1
2020-Oct-30 02:10 044 11.1
2020-Oct-30 02:00 039 11.1
2020-Oct-30 01:50 063 11.1
2020-Oct-30 01:41 049 11.1
2020-Oct-30 01:30 039 10.6
2020-Oct-30 01:20 066 10.6
2020-Oct-30 01:10 045 10.6
2020-Oct-30 01:01 056 10.6
2020-Oct-30 00:52 057 10.6
2020-Oct-30 00:43 038 10.6
2020-Oct-30 00:33 024 10.6
2020-Oct-30 00:14 039 10.6
2020-Oct-30 00:05 344 10.6
2020-Oct-30 00:04 038 10.6
2020-Oct-29 23:55 042 10.6
2020-Oct-29 23:45 044 10.6
2020-Oct-29 23:35 048 10.0
2020-Oct-29 23:26 037 10.0
2020-Oct-29 23:16 044 10.0
2020-Oct-29 23:06 033 10.0
2020-Oct-29 22:57 027 10.0
2020-Oct-29 22:47 056 10.0
2020-Oct-29 22:37 007 10.0
2020-Oct-29 22:28 024 10.0
2020-Oct-29 22:18 061 10.0
2020-Oct-29 22:08 037 10.0
2020-Oct-29 21:58 030 10.0
2020-Oct-29 21:49 045 10.0
2020-Oct-29 21:40 031 10.0
2020-Oct-29 21:30 040 10.0
2020-Oct-29 21:20 093 10.0
2020-Oct-29 21:10 085 10.0
2020-Oct-29 21:02 055 10.0
2020-Oct-29 20:50 106 10.0
2020-Oct-29 20:41 099 10.0
2020-Oct-29 20:30 084 10.0
2020-Oct-29 20:29 084 9.4
2020-Oct-29 20:19 087 9.4
2020-Oct-29 20:09 094 9.4
2020-Oct-29 19:58 090 9.4
2020-Oct-29 19:48 116 9.4
2020-Oct-29 19:38 016 9.4
2020-Oct-29 19:29 318 9.4
2020-Oct-29 19:19 083 9.4
2020-Oct-29 19:09 052 9.4
2020-Oct-29 19:00 008 9.4
2020-Oct-29 18:49 028 9.4
2020-Oct-29 18:40 075 9.4
2020-Oct-29 18:30 062 9.4
2020-Oct-29 18:21 117 9.4
2020-Oct-29 18:11 191 8.9
2020-Oct-29 18:00 076 8.9
2020-Oct-29 17:50 090 8.9
2020-Oct-29 17:40 270 8.9
2020-Oct-29 17:31 093 8.9
2020-Oct-29 17:21 098 8.9
2020-Oct-29 17:11 090 8.9
2020-Oct-29 17:02 090 8.9
2020-Oct-29 16:53 180 9.4
2020-Oct-29 16:43 180 9.4
2020-Oct-29 16:34 180 9.4
2020-Oct-29 16:25 107 9.4
2020-Oct-29 16:15 139 10.0
2020-Oct-29 16:06 083 10.0
2020-Oct-29 15:57 067 10.0
2020-Oct-29 15:40 061 10.0
2020-Oct-29 15:20 051 10.0
2020-Oct-29 15:11 045 10.0
2020-Oct-29 15:01 053 10.0
2020-Oct-29 14:52 045 10.0
2020-Oct-29 14:42 045 10.0
2020-Oct-29 14:33 040 10.0
2020-Oct-29 14:23 360 10.0
2020-Oct-29 14:13 043 10.0
2020-Oct-29 14:04 360 10.0
2020-Oct-29 13:54 360 10.0
2020-Oct-29 13:44 022 10.0
2020-Oct-29 13:34 360 10.0
2020-Oct-29 13:24 360 10.0
2020-Oct-29 13:14 360 10.0
2020-Oct-29 13:04 360 10.0
2020-Oct-29 12:54 360 10.0
2020-Oct-29 12:44 360 10.0
2020-Oct-29 12:34 360 10.0
2020-Oct-29 12:25 360 10.0
2020-Oct-29 12:15 360 10.0
2020-Oct-29 12:07 360 10.0